createdAt,value
2023-03-10T05:52:28.112Z,73.54
2023-03-10T05:57:27.937Z,73.30
2023-03-10T06:02:27.925Z,72.55
2023-03-10T06:07:27.797Z,71.84
2023-03-10T06:12:27.802Z,74.29
2023-03-10T06:17:27.735Z,73.23
2023-03-10T06:22:30.712Z,73.23
2023-03-10T06:27:27.554Z,74.83
2023-03-10T06:32:27.763Z,74.29
2023-03-10T06:37:27.405Z,73.23
2023-03-10T06:42:30.453Z,73.64
2023-03-10T06:47:27.359Z,74.05
2023-03-10T06:52:27.313Z,72.96
2023-03-10T06:57:27.130Z,72.75
2023-03-10T07:02:27.301Z,71.02
2023-03-10T07:07:27.005Z,72.52
2023-03-10T07:12:26.993Z,72.48
2023-03-10T07:17:26.882Z,70.99
2023-03-10T07:22:26.948Z,70.31
2023-03-10T07:27:26.766Z,68.52
2023-03-10T07:32:26.836Z,67.65
2023-03-10T07:37:26.724Z,66.05
2023-03-10T07:42:29.870Z,66.36
2023-03-10T07:47:26.555Z,66.80
2023-03-10T07:52:26.549Z,65.08
2023-03-10T07:57:26.368Z,65.08
2023-03-10T08:02:26.397Z,63.89
2023-03-10T08:07:26.226Z,65.34
2023-03-10T08:12:26.174Z,65.37
2023-03-10T08:17:26.061Z,64.64
2023-03-10T08:22:26.176Z,64.36
2023-03-10T08:27:28.495Z,64.97
2023-03-10T08:32:25.941Z,64.81
2023-03-10T08:37:25.847Z,62.05
2023-03-10T08:42:28.823Z,60.97
2023-03-10T08:47:28.589Z,62.31
2023-03-10T08:52:25.641Z,60.30
2023-03-10T08:57:25.541Z,61.24
2023-03-10T09:02:25.687Z,60.50
2023-03-10T09:07:25.464Z,60.38
2023-03-10T09:12:29.534Z,59.77
2023-03-10T09:17:26.312Z,60.33
2023-03-10T09:22:25.222Z,61.47
2023-03-10T09:27:25.234Z,60.97
2023-03-10T09:32:25.184Z,62.29
2023-03-10T09:37:25.110Z,61.35
2023-03-10T09:42:37.504Z,60.00
2023-03-10T09:47:25.898Z,61.80
2023-03-10T09:52:25.016Z,60.46
2023-03-10T09:57:24.764Z,61.44
2023-03-10T10:02:24.934Z,61.07
2023-03-10T10:07:24.624Z,60.41
2023-03-10T10:12:24.598Z,61.24
2023-03-10T10:17:24.614Z,59.51
2023-03-10T10:22:24.486Z,57.89
2023-03-10T10:27:25.605Z,57.82
2023-03-10T10:32:24.406Z,58.50
2023-03-10T10:37:24.236Z,58.60
2023-03-10T10:42:27.319Z,58.50
2023-03-10T10:47:24.125Z,60.52
2023-03-10T10:52:24.180Z,59.48
2023-03-10T10:57:23.948Z,59.71
2023-03-10T11:02:24.217Z,58.01
2023-03-10T11:07:23.831Z,59.03
2023-03-10T11:12:23.898Z,58.47
2023-03-10T11:17:23.684Z,59.91
2023-03-10T11:22:24.117Z,59.64
2023-03-10T11:27:23.549Z,59.74
2023-03-10T11:32:23.569Z,60.05
2023-03-10T11:37:23.457Z,59.14
2023-03-10T11:42:26.382Z,60.50
2023-03-10T11:47:23.283Z,61.30
2023-03-10T11:52:23.299Z,59.92
2023-03-10T11:57:23.153Z,59.56
2023-03-10T12:02:23.219Z,60.66
2023-03-10T12:07:23.125Z,60.43
2023-03-10T12:12:25.075Z,59.77
2023-03-10T12:17:22.945Z,60.50
2023-03-10T12:22:22.926Z,63.86
2023-03-10T12:27:22.841Z,63.32
2023-03-10T12:32:22.897Z,60.78
2023-03-10T12:37:22.631Z,59.84
2023-03-10T12:42:33.437Z,57.28
2023-03-10T12:47:29.979Z,58.82
2023-03-10T12:52:22.527Z,61.62
2023-03-10T12:57:22.354Z,61.65
2023-03-10T13:02:22.346Z,62.49
2023-03-10T13:07:22.223Z,62.74
2023-03-10T13:12:22.218Z,61.01
2023-03-10T13:17:22.282Z,59.91
2023-03-10T13:22:31.005Z,59.48
2023-03-10T13:27:24.020Z,59.58
2023-03-10T13:32:22.006Z,58.74
2023-03-10T13:37:21.803Z,57.21
2023-03-10T13:42:37.024Z,56.25
2023-03-10T13:47:22.812Z,54.56
2023-03-10T13:52:21.698Z,53.27
2023-03-10T13:57:21.723Z,52.44
2023-03-10T14:02:21.719Z,51.68
2023-03-10T14:07:21.524Z,52.26
2023-03-10T14:12:21.526Z,52.64
2023-03-10T14:17:21.485Z,52.87
2023-03-10T14:22:21.263Z,52.94
2023-03-10T14:27:21.146Z,51.06
2023-03-10T14:32:21.938Z,51.91
2023-03-10T14:37:21.128Z,52.14
2023-03-10T14:42:24.040Z,52.16
2023-03-10T14:47:21.036Z,52.16
2023-03-10T14:52:20.893Z,51.64
2023-03-10T14:57:20.745Z,54.38
2023-03-10T15:02:20.896Z,54.91
2023-03-10T15:07:20.608Z,54.41
2023-03-10T15:12:20.593Z,55.27
2023-03-10T15:17:20.517Z,54.56
2023-03-10T15:22:20.467Z,56.63
2023-03-10T15:27:20.458Z,55.85
2023-03-10T15:32:27.879Z,55.65
2023-03-10T15:37:20.273Z,56.82
2023-03-10T15:42:23.184Z,56.21
2023-03-10T15:47:20.106Z,59.00
2023-03-10T15:52:20.091Z,57.68
2023-03-10T15:57:20.027Z,58.24
2023-03-10T16:02:20.267Z,58.52
2023-03-10T16:07:19.808Z,58.98
2023-03-10T16:12:20.030Z,59.72
2023-03-10T16:17:27.294Z,59.52
2023-03-10T16:22:19.628Z,61.51
2023-03-10T16:27:19.582Z,62.21
2023-03-10T16:32:19.527Z,62.45
2023-03-10T16:37:19.471Z,64.31
2023-03-10T16:42:22.377Z,64.51
2023-03-10T16:47:19.379Z,64.38
2023-03-10T16:52:19.261Z,62.72
2023-03-10T16:57:19.129Z,63.54
2023-03-10T17:02:19.274Z,65.12
2023-03-10T17:07:19.113Z,67.16
2023-03-10T17:12:19.100Z,67.57
2023-03-10T17:17:18.845Z,68.71
2023-03-10T17:22:18.809Z,68.62
2023-03-10T17:27:26.248Z,68.95
2023-03-10T17:32:25.637Z,69.32
2023-03-10T17:37:18.695Z,71.50
2023-03-10T17:42:21.632Z,75.07
2023-03-10T17:47:18.476Z,77.65
2023-03-10T17:52:18.698Z,78.88
2023-03-10T17:57:19.428Z,80.44
2023-03-10T18:02:18.730Z,81.60
2023-03-10T18:07:22.563Z,82.01
2023-03-10T18:12:18.209Z,81.26
2023-03-10T18:17:18.102Z,83.07
2023-03-10T18:22:19.271Z,81.37
2023-03-10T18:27:17.988Z,82.32
2023-03-10T18:32:17.992Z,81.95
2023-03-10T18:37:17.834Z,82.63
2023-03-10T18:42:20.863Z,82.42
2023-03-10T18:47:17.712Z,83.15
2023-03-10T18:52:17.737Z,83.32
2023-03-10T18:57:17.564Z,82.40
2023-03-10T19:02:18.063Z,81.07
2023-03-10T19:07:25.314Z,80.11
2023-03-10T19:12:17.391Z,80.39
2023-03-10T19:17:17.343Z,79.91
2023-03-10T19:22:17.342Z,80.51
2023-03-10T19:27:17.262Z,81.63
2023-03-10T19:32:17.199Z,81.49
2023-03-10T19:37:17.092Z,81.59
2023-03-10T19:42:20.144Z,82.14
2023-03-10T19:47:16.934Z,82.14
2023-03-10T19:52:16.963Z,80.71
2023-03-10T19:57:16.835Z,80.44
2023-03-10T20:07:46.900Z,80.03
2023-03-10T20:12:47.091Z,80.68
2023-03-10T20:17:46.820Z,82.01
2023-03-10T20:22:46.549Z,81.91
2023-03-10T20:27:47.259Z,81.02
2023-03-10T20:32:46.618Z,80.55
2023-03-10T20:37:46.554Z,79.38
2023-03-10T20:45:16.827Z,79.93
2023-03-10T20:50:16.619Z,79.52
2023-03-10T20:55:16.811Z,79.22
2023-03-10T21:00:16.606Z,78.88
2023-03-10T21:05:16.474Z,78.06
2023-03-10T21:10:16.472Z,77.10
2023-03-10T21:15:16.456Z,75.56
2023-03-10T21:20:16.539Z,76.14
2023-03-10T21:25:16.742Z,75.90
2023-03-10T21:30:16.271Z,75.35
2023-03-10T21:35:19.162Z,75.70
2023-03-10T21:40:16.006Z,76.14
2023-03-10T21:50:47.948Z,75.01
2023-03-10T21:55:47.788Z,75.29
2023-03-10T22:00:56.372Z,73.29
2023-03-10T22:05:47.627Z,75.70
2023-03-10T22:10:47.891Z,74.74
2023-03-10T22:15:47.787Z,77.15
2023-03-10T22:53:49.675Z,78.27
2023-03-10T22:58:49.556Z,77.54
2023-03-10T23:03:49.711Z,79.17
2023-03-10T23:08:49.393Z,79.44
2023-03-10T23:13:49.417Z,78.82
2023-03-10T23:18:49.355Z,78.68
2023-03-10T23:23:49.251Z,77.50
2023-03-10T23:28:49.351Z,78.51
2023-03-10T23:33:49.108Z,78.06
2023-03-10T23:38:48.946Z,76.50
2023-03-10T23:43:52.298Z,78.09
